sensor_id;sensor_type;location;lat;lon;timestamp;pressure;altitude;pressure_sealevel;temperature;humidity
29815;BME280;16708;50.426;7.664;2023-04-15T00:00:32;978.52;;;3.72;100.00
29815;BME280;16708;50.426;7.664;2023-04-15T00:05:26;978.55;;;3.76;100.00
29815;BME280;16708;50.426;7.664;2023-04-15T00:10:20;978.52;;;3.80;100.00
29815;BME280;16708;50.426;7.664;2023-04-15T00:15:15;978.41;;;3.73;100.00
29815;BME280;16708;50.426;7.664;2023-04-15T00:20:09;978.42;;;3.63;100.00
29815;BME280;16708;50.426;7.664;2023-04-15T00:25:03;978.53;;;3.39;100.00
29815;BME280;16708;50.426;7.664;2023-04-15T00:29:57;978.49;;;3.32;100.00
29815;BME280;16708;50.426;7.664;2023-04-15T00:34:51;978.46;;;3.13;100.00
29815;BME280;16708;50.426;7.664;2023-04-15T00:39:44;978.47;;;3.20;100.00
29815;BME280;16708;50.426;7.664;2023-04-15T00:44:41;978.54;;;3.21;100.00
29815;BME280;16708;50.426;7.664;2023-04-15T00:49:32;978.49;;;3.07;100.00
29815;BME280;16708;50.426;7.664;2023-04-15T00:54:26;978.45;;;3.00;100.00
29815;BME280;16708;50.426;7.664;2023-04-15T00:59:20;978.46;;;2.98;100.00
29815;BME280;16708;50.426;7.664;2023-04-15T01:04:14;978.45;;;3.01;100.00
29815;BME280;16708;50.426;7.664;2023-04-15T01:09:08;978.41;;;2.98;100.00
29815;BME280;16708;50.426;7.664;2023-04-15T01:14:02;978.39;;;2.82;100.00
29815;BME280;16708;50.426;7.664;2023-04-15T01:18:55;978.35;;;2.80;100.00
29815;BME280;16708;50.426;7.664;2023-04-15T01:23:47;978.37;;;2.83;100.00
29815;BME280;16708;50.426;7.664;2023-04-15T01:28:40;978.42;;;2.86;100.00
29815;BME280;16708;50.426;7.664;2023-04-15T01:33:32;978.45;;;2.84;100.00
29815;BME280;16708;50.426;7.664;2023-04-15T01:38:27;978.39;;;2.84;100.00
29815;BME280;16708;50.426;7.664;2023-04-15T01:43:20;978.43;;;2.86;100.00
29815;BME280;16708;50.426;7.664;2023-04-15T01:48:15;978.35;;;2.83;100.00
29815;BME280;16708;50.426;7.664;2023-04-15T01:53:09;978.39;;;2.71;100.00
29815;BME280;16708;50.426;7.664;2023-04-15T01:58:03;978.41;;;2.71;100.00
29815;BME280;16708;50.426;7.664;2023-04-15T02:02:57;978.33;;;2.62;100.00
29815;BME280;16708;50.426;7.664;2023-04-15T02:07:50;978.36;;;2.43;100.00
29815;BME280;16708;50.426;7.664;2023-04-15T02:12:44;978.37;;;2.45;100.00
29815;BME280;16708;50.426;7.664;2023-04-15T02:17:38;978.33;;;2.53;100.00
29815;BME280;16708;50.426;7.664;2023-04-15T02:22:33;978.40;;;2.52;100.00
29815;BME280;16708;50.426;7.664;2023-04-15T02:27:26;978.35;;;2.50;100.00
29815;BME280;16708;50.426;7.664;2023-04-15T02:32:19;978.45;;;2.48;100.00
29815;BME280;16708;50.426;7.664;2023-04-15T02:37:13;978.38;;;2.50;100.00
29815;BME280;16708;50.426;7.664;2023-04-15T02:42:07;978.41;;;2.39;100.00
29815;BME280;16708;50.426;7.664;2023-04-15T02:47:01;978.56;;;2.31;100.00
29815;BME280;16708;50.426;7.664;2023-04-15T02:51:55;978.50;;;2.37;100.00
29815;BME280;16708;50.426;7.664;2023-04-15T02:56:48;978.48;;;2.34;100.00
29815;BME280;16708;50.426;7.664;2023-04-15T03:01:42;978.48;;;2.31;100.00
29815;BME280;16708;50.426;7.664;2023-04-15T03:06:36;978.57;;;2.26;100.00
29815;BME280;16708;50.426;7.664;2023-04-15T03:11:30;978.69;;;2.24;100.00
29815;BME280;16708;50.426;7.664;2023-04-15T03:16:24;978.62;;;2.29;100.00
29815;BME280;16708;50.426;7.664;2023-04-15T03:21:18;978.49;;;2.32;100.00
29815;BME280;16708;50.426;7.664;2023-04-15T03:26:11;978.51;;;2.36;100.00
29815;BME280;16708;50.426;7.664;2023-04-15T03:31:05;978.55;;;2.15;100.00
29815;BME280;16708;50.426;7.664;2023-04-15T03:35:59;978.59;;;2.08;100.00
29815;BME280;16708;50.426;7.664;2023-04-15T03:40:52;978.60;;;1.93;100.00
29815;BME280;16708;50.426;7.664;2023-04-15T03:45:50;978.57;;;1.88;100.00
29815;BME280;16708;50.426;7.664;2023-04-15T03:50:39;978.65;;;1.87;100.00
29815;BME280;16708;50.426;7.664;2023-04-15T03:55:33;978.57;;;1.79;100.00
29815;BME280;16708;50.426;7.664;2023-04-15T04:00:27;978.63;;;1.76;100.00
29815;BME280;16708;50.426;7.664;2023-04-15T04:05:21;978.73;;;1.71;100.00
29815;BME280;16708;50.426;7.664;2023-04-15T04:10:15;978.66;;;1.67;100.00
29815;BME280;16708;50.426;7.664;2023-04-15T04:15:08;978.74;;;1.66;100.00
29815;BME280;16708;50.426;7.664;2023-04-15T04:20:02;978.74;;;1.60;100.00
29815;BME280;16708;50.426;7.664;2023-04-15T04:24:56;978.71;;;1.53;100.00
29815;BME280;16708;50.426;7.664;2023-04-15T04:29:47;978.77;;;1.50;100.00
29815;BME280;16708;50.426;7.664;2023-04-15T04:34:41;978.80;;;1.68;100.00
29815;BME280;16708;50.426;7.664;2023-04-15T04:39:35;978.84;;;1.58;100.00
29815;BME280;16708;50.426;7.664;2023-04-15T04:44:29;978.87;;;1.60;100.00
29815;BME280;16708;50.426;7.664;2023-04-15T04:49:21;978.86;;;1.58;100.00
29815;BME280;16708;50.426;7.664;2023-04-15T04:54:13;978.85;;;1.56;100.00
29815;BME280;16708;50.426;7.664;2023-04-15T04:59:07;978.91;;;1.62;100.00
29815;BME280;16708;50.426;7.664;2023-04-15T05:04:01;978.88;;;1.78;100.00
29815;BME280;16708;50.426;7.664;2023-04-15T05:08:55;978.92;;;1.81;100.00
29815;BME280;16708;50.426;7.664;2023-04-15T05:13:49;978.91;;;2.01;100.00
29815;BME280;16708;50.426;7.664;2023-04-15T05:18:43;978.95;;;2.14;100.00
29815;BME280;16708;50.426;7.664;2023-04-15T05:23:37;978.98;;;2.30;100.00
29815;BME280;16708;50.426;7.664;2023-04-15T05:28:31;979.11;;;2.55;100.00
29815;BME280;16708;50.426;7.664;2023-04-15T05:33:25;979.05;;;2.71;100.00
29815;BME280;16708;50.426;7.664;2023-04-15T05:38:18;979.14;;;2.82;100.00
29815;BME280;16708;50.426;7.664;2023-04-15T05:43:13;979.19;;;2.97;100.00
29815;BME280;16708;50.426;7.664;2023-04-15T05:48:07;979.24;;;3.04;100.00
29815;BME280;16708;50.426;7.664;2023-04-15T05:53:01;979.35;;;3.20;100.00
29815;BME280;16708;50.426;7.664;2023-04-15T05:57:55;979.34;;;3.37;100.00
29815;BME280;16708;50.426;7.664;2023-04-15T06:02:47;979.35;;;3.64;100.00
29815;BME280;16708;50.426;7.664;2023-04-15T06:07:42;979.36;;;3.79;100.00
29815;BME280;16708;50.426;7.664;2023-04-15T06:12:36;979.34;;;4.00;100.00
29815;BME280;16708;50.426;7.664;2023-04-15T06:17:30;979.37;;;4.36;100.00
29815;BME280;16708;50.426;7.664;2023-04-15T06:22:26;979.43;;;4.84;100.00
29815;BME280;16708;50.426;7.664;2023-04-15T06:27:19;979.42;;;5.01;100.00
29815;BME280;16708;50.426;7.664;2023-04-15T06:32:13;979.43;;;5.56;100.00
29815;BME280;16708;50.426;7.664;2023-04-15T06:37:08;979.49;;;6.07;100.00
29815;BME280;16708;50.426;7.664;2023-04-15T06:42:02;979.47;;;6.83;100.00
29815;BME280;16708;50.426;7.664;2023-04-15T06:46:57;979.50;;;7.02;100.00
29815;BME280;16708;50.426;7.664;2023-04-15T06:51:52;979.40;;;7.01;100.00
29815;BME280;16708;50.426;7.664;2023-04-15T06:56:46;979.47;;;7.40;100.00
29815;BME280;16708;50.426;7.664;2023-04-15T07:01:40;979.34;;;7.32;100.00
29815;BME280;16708;50.426;7.664;2023-04-15T07:06:35;979.47;;;7.19;100.00
29815;BME280;16708;50.426;7.664;2023-04-15T07:11:29;979.45;;;7.42;100.00
29815;BME280;16708;50.426;7.664;2023-04-15T07:16:23;979.52;;;7.95;100.00
29815;BME280;16708;50.426;7.664;2023-04-15T07:21:17;979.60;;;8.43;100.00
29815;BME280;16708;50.426;7.664;2023-04-15T07:26:11;979.54;;;8.60;100.00
29815;BME280;16708;50.426;7.664;2023-04-15T07:31:05;979.50;;;8.86;100.00
29815;BME280;16708;50.426;7.664;2023-04-15T07:36:00;979.60;;;9.40;100.00
29815;BME280;16708;50.426;7.664;2023-04-15T07:40:54;979.62;;;9.98;100.00
29815;BME280;16708;50.426;7.664;2023-04-15T07:45:48;979.68;;;10.07;100.00
29815;BME280;16708;50.426;7.664;2023-04-15T07:50:42;979.68;;;10.45;100.00
29815;BME280;16708;50.426;7.664;2023-04-15T07:55:37;979.68;;;10.97;100.00
29815;BME280;16708;50.426;7.664;2023-04-15T08:00:32;979.78;;;11.53;94.22
29815;BME280;16708;50.426;7.664;2023-04-15T08:05:27;979.79;;;11.38;97.38
29815;BME280;16708;50.426;7.664;2023-04-15T08:10:21;979.80;;;11.64;97.32
29815;BME280;16708;50.426;7.664;2023-04-15T08:15:15;979.76;;;11.49;95.72
29815;BME280;16708;50.426;7.664;2023-04-15T08:20:09;979.82;;;11.92;97.03
29815;BME280;16708;50.426;7.664;2023-04-15T08:25:03;979.83;;;12.25;83.95
29815;BME280;16708;50.426;7.664;2023-04-15T08:29:58;979.82;;;12.72;83.75
29815;BME280;16708;50.426;7.664;2023-04-15T08:34:52;979.87;;;13.35;71.14
29815;BME280;16708;50.426;7.664;2023-04-15T08:39:47;979.81;;;13.41;67.62
29815;BME280;16708;50.426;7.664;2023-04-15T08:44:40;979.89;;;13.26;63.24
29815;BME280;16708;50.426;7.664;2023-04-15T08:49:34;980.02;;;13.41;62.04
29815;BME280;16708;50.426;7.664;2023-04-15T08:54:29;979.91;;;13.16;50.66
29815;BME280;16708;50.426;7.664;2023-04-15T08:59:25;979.99;;;12.83;51.97
29815;BME280;16708;50.426;7.664;2023-04-15T09:04:16;980.07;;;13.21;51.19
29815;BME280;16708;50.426;7.664;2023-04-15T09:09:08;980.11;;;12.98;54.26
29815;BME280;16708;50.426;7.664;2023-04-15T09:14:03;980.12;;;13.58;51.44
29815;BME280;16708;50.426;7.664;2023-04-15T09:23:52;980.23;;;13.99;48.61
29815;BME280;16708;50.426;7.664;2023-04-15T09:28:45;980.41;;;13.97;45.40
29815;BME280;16708;50.426;7.664;2023-04-15T09:38:35;980.43;;;17.14;40.75
29815;BME280;16708;50.426;7.664;2023-04-15T09:48:25;980.49;;;15.91;39.74
29815;BME280;16708;50.426;7.664;2023-04-15T09:53:19;980.51;;;15.67;41.58
29815;BME280;16708;50.426;7.664;2023-04-15T09:58:14;980.64;;;15.31;42.50
29815;BME280;16708;50.426;7.664;2023-04-15T10:03:09;980.56;;;16.41;40.25
29815;BME280;16708;50.426;7.664;2023-04-15T10:08:02;980.67;;;16.80;42.41
29815;BME280;16708;50.426;7.664;2023-04-15T10:12:56;980.60;;;15.90;41.59
29815;BME280;16708;50.426;7.664;2023-04-15T10:17:50;980.56;;;16.05;43.62
29815;BME280;16708;50.426;7.664;2023-04-15T10:22:43;980.66;;;15.71;41.84
29815;BME280;16708;50.426;7.664;2023-04-15T10:27:35;980.66;;;15.99;40.86
29815;BME280;16708;50.426;7.664;2023-04-15T10:32:29;980.70;;;16.28;41.80
29815;BME280;16708;50.426;7.664;2023-04-15T10:42:17;980.71;;;16.36;38.39
29815;BME280;16708;50.426;7.664;2023-04-15T10:47:12;980.78;;;15.71;38.13
29815;BME280;16708;50.426;7.664;2023-04-15T10:52:06;980.74;;;15.40;40.92
29815;BME280;16708;50.426;7.664;2023-04-15T11:01:54;980.83;;;14.69;42.08
29815;BME280;16708;50.426;7.664;2023-04-15T11:06:47;980.87;;;14.73;44.32
29815;BME280;16708;50.426;7.664;2023-04-15T11:16:35;981.00;;;15.19;45.07
29815;BME280;16708;50.426;7.664;2023-04-15T11:21:29;980.98;;;14.97;45.53
29815;BME280;16708;50.426;7.664;2023-04-15T11:31:17;981.17;;;14.61;47.50
29815;BME280;16708;50.426;7.664;2023-04-15T11:36:12;981.30;;;14.23;47.47
29815;BME280;16708;50.426;7.664;2023-04-15T11:50:55;981.52;;;16.09;45.64
29815;BME280;16708;50.426;7.664;2023-04-15T11:55:49;981.67;;;16.09;46.34
29815;BME280;16708;50.426;7.664;2023-04-15T12:00:44;981.64;;;15.75;46.43
29815;BME280;16708;50.426;7.664;2023-04-15T12:05:38;981.62;;;15.53;48.27
29815;BME280;16708;50.426;7.664;2023-04-15T12:10:31;981.68;;;13.81;53.19
29815;BME280;16708;50.426;7.664;2023-04-15T12:15:23;981.74;;;13.83;57.99
29815;BME280;16708;50.426;7.664;2023-04-15T12:20:14;981.85;;;13.74;59.77
29815;BME280;16708;50.426;7.664;2023-04-15T12:25:07;981.97;;;12.95;65.30
29815;BME280;16708;50.426;7.664;2023-04-15T12:30:01;982.07;;;12.51;76.02
29815;BME280;16708;50.426;7.664;2023-04-15T12:34:53;982.16;;;12.07;81.91
29815;BME280;16708;50.426;7.664;2023-04-15T12:39:47;982.16;;;12.28;87.62
29815;BME280;16708;50.426;7.664;2023-04-15T12:44:42;982.31;;;11.88;94.55
29815;BME280;16708;50.426;7.664;2023-04-15T12:49:36;982.47;;;11.80;97.93
29815;BME280;16708;50.426;7.664;2023-04-15T12:54:30;982.51;;;11.89;100.00
29815;BME280;16708;50.426;7.664;2023-04-15T12:59:23;982.53;;;12.15;100.00
29815;BME280;16708;50.426;7.664;2023-04-15T13:04:17;982.66;;;11.98;100.00
29815;BME280;16708;50.426;7.664;2023-04-15T13:09:12;982.69;;;11.47;100.00
29815;BME280;16708;50.426;7.664;2023-04-15T13:14:06;982.83;;;11.88;100.00
29815;BME280;16708;50.426;7.664;2023-04-15T13:19:01;982.85;;;12.19;100.00
29815;BME280;16708;50.426;7.664;2023-04-15T13:23:55;982.83;;;12.14;100.00
29815;BME280;16708;50.426;7.664;2023-04-15T13:28:47;982.91;;;11.92;100.00
29815;BME280;16708;50.426;7.664;2023-04-15T13:33:41;983.04;;;11.76;100.00
29815;BME280;16708;50.426;7.664;2023-04-15T13:38:35;982.97;;;11.79;100.00
29815;BME280;16708;50.426;7.664;2023-04-15T13:43:30;983.08;;;11.47;100.00
29815;BME280;16708;50.426;7.664;2023-04-15T13:48:24;983.13;;;11.09;100.00
29815;BME280;16708;50.426;7.664;2023-04-15T13:53:19;983.16;;;10.93;100.00
29815;BME280;16708;50.426;7.664;2023-04-15T13:58:07;983.28;;;10.76;100.00
29815;BME280;16708;50.426;7.664;2023-04-15T14:03:02;983.31;;;10.23;100.00
29815;BME280;16708;50.426;7.664;2023-04-15T14:07:56;983.36;;;10.15;100.00
29815;BME280;16708;50.426;7.664;2023-04-15T14:12:49;983.38;;;10.34;100.00
29815;BME280;16708;50.426;7.664;2023-04-15T14:17:46;983.50;;;9.77;100.00
29815;BME280;16708;50.426;7.664;2023-04-15T14:22:36;983.67;;;9.67;100.00
29815;BME280;16708;50.426;7.664;2023-04-15T14:27:31;983.71;;;9.81;100.00
29815;BME280;16708;50.426;7.664;2023-04-15T14:32:23;983.77;;;9.77;100.00
29815;BME280;16708;50.426;7.664;2023-04-15T14:37:17;983.75;;;9.94;100.00
29815;BME280;16708;50.426;7.664;2023-04-15T14:42:12;983.80;;;10.35;100.00
29815;BME280;16708;50.426;7.664;2023-04-15T14:47:05;983.83;;;10.34;100.00
29815;BME280;16708;50.426;7.664;2023-04-15T14:52:00;983.87;;;10.41;100.00
29815;BME280;16708;50.426;7.664;2023-04-15T14:56:54;984.03;;;10.06;100.00
29815;BME280;16708;50.426;7.664;2023-04-15T15:01:49;984.03;;;10.21;100.00
29815;BME280;16708;50.426;7.664;2023-04-15T15:06:43;984.05;;;9.96;100.00
29815;BME280;16708;50.426;7.664;2023-04-15T15:11:37;984.24;;;9.41;100.00
29815;BME280;16708;50.426;7.664;2023-04-15T15:16:30;984.22;;;9.43;100.00
29815;BME280;16708;50.426;7.664;2023-04-15T15:21:24;984.26;;;9.46;100.00
29815;BME280;16708;50.426;7.664;2023-04-15T15:26:17;984.29;;;9.44;100.00
29815;BME280;16708;50.426;7.664;2023-04-15T15:31:12;984.30;;;9.17;100.00
29815;BME280;16708;50.426;7.664;2023-04-15T15:36:06;984.40;;;9.22;100.00
29815;BME280;16708;50.426;7.664;2023-04-15T15:41:00;984.51;;;9.14;100.00
29815;BME280;16708;50.426;7.664;2023-04-15T15:45:55;984.54;;;9.04;100.00
29815;BME280;16708;50.426;7.664;2023-04-15T15:50:49;984.54;;;8.81;100.00
29815;BME280;16708;50.426;7.664;2023-04-15T15:55:43;984.65;;;8.81;100.00
29815;BME280;16708;50.426;7.664;2023-04-15T16:00:38;984.74;;;8.64;100.00
29815;BME280;16708;50.426;7.664;2023-04-15T16:05:32;984.82;;;8.56;100.00
29815;BME280;16708;50.426;7.664;2023-04-15T16:10:26;984.93;;;8.49;100.00
29815;BME280;16708;50.426;7.664;2023-04-15T16:15:20;984.93;;;8.36;100.00
29815;BME280;16708;50.426;7.664;2023-04-15T16:20:14;984.96;;;8.32;100.00
29815;BME280;16708;50.426;7.664;2023-04-15T16:25:08;985.07;;;8.24;100.00
29815;BME280;16708;50.426;7.664;2023-04-15T16:30:02;985.05;;;8.26;100.00
29815;BME280;16708;50.426;7.664;2023-04-15T16:34:56;985.18;;;8.24;100.00
29815;BME280;16708;50.426;7.664;2023-04-15T16:39:49;985.22;;;8.21;100.00
29815;BME280;16708;50.426;7.664;2023-04-15T16:44:43;985.25;;;8.13;100.00
29815;BME280;16708;50.426;7.664;2023-04-15T16:49:37;985.34;;;8.22;100.00
29815;BME280;16708;50.426;7.664;2023-04-15T16:54:31;985.31;;;8.11;100.00
29815;BME280;16708;50.426;7.664;2023-04-15T16:59:23;985.42;;;8.13;100.00
29815;BME280;16708;50.426;7.664;2023-04-15T17:04:16;985.47;;;8.14;100.00
29815;BME280;16708;50.426;7.664;2023-04-15T17:09:11;985.50;;;8.08;100.00
29815;BME280;16708;50.426;7.664;2023-04-15T17:14:03;985.54;;;8.08;100.00
29815;BME280;16708;50.426;7.664;2023-04-15T17:18:57;985.61;;;8.10;100.00
29815;BME280;16708;50.426;7.664;2023-04-15T17:23:52;985.69;;;8.12;100.00
29815;BME280;16708;50.426;7.664;2023-04-15T17:28:46;985.64;;;8.08;100.00
29815;BME280;16708;50.426;7.664;2023-04-15T17:33:41;985.68;;;8.09;100.00
29815;BME280;16708;50.426;7.664;2023-04-15T17:38:35;985.68;;;8.11;100.00
29815;BME280;16708;50.426;7.664;2023-04-15T17:43:29;985.84;;;8.03;100.00
29815;BME280;16708;50.426;7.664;2023-04-15T17:48:23;985.87;;;8.06;100.00
29815;BME280;16708;50.426;7.664;2023-04-15T17:53:16;985.89;;;8.04;100.00
29815;BME280;16708;50.426;7.664;2023-04-15T17:58:10;986.03;;;8.05;100.00
29815;BME280;16708;50.426;7.664;2023-04-15T18:03:04;986.05;;;8.02;100.00
29815;BME280;16708;50.426;7.664;2023-04-15T18:07:58;986.08;;;8.00;100.00
29815;BME280;16708;50.426;7.664;2023-04-15T18:12:53;986.12;;;7.98;100.00
29815;BME280;16708;50.426;7.664;2023-04-15T18:17:46;986.19;;;8.01;100.00
29815;BME280;16708;50.426;7.664;2023-04-15T18:22:41;986.27;;;7.96;100.00
29815;BME280;16708;50.426;7.664;2023-04-15T18:27:35;986.41;;;7.98;100.00
29815;BME280;16708;50.426;7.664;2023-04-15T18:32:29;986.55;;;7.97;100.00
29815;BME280;16708;50.426;7.664;2023-04-15T18:37:23;986.60;;;7.96;100.00
29815;BME280;16708;50.426;7.664;2023-04-15T18:42:17;986.67;;;7.92;100.00
29815;BME280;16708;50.426;7.664;2023-04-15T18:47:11;986.75;;;7.90;100.00
29815;BME280;16708;50.426;7.664;2023-04-15T18:52:05;986.84;;;7.88;100.00
29815;BME280;16708;50.426;7.664;2023-04-15T18:56:59;986.75;;;7.84;100.00
29815;BME280;16708;50.426;7.664;2023-04-15T19:01:53;986.90;;;7.88;100.00
29815;BME280;16708;50.426;7.664;2023-04-15T19:06:48;986.95;;;7.84;100.00
29815;BME280;16708;50.426;7.664;2023-04-15T19:11:42;987.02;;;7.88;100.00
29815;BME280;16708;50.426;7.664;2023-04-15T19:16:37;987.03;;;7.84;100.00
29815;BME280;16708;50.426;7.664;2023-04-15T19:21:31;987.11;;;7.86;100.00
29815;BME280;16708;50.426;7.664;2023-04-15T19:26:25;987.11;;;7.84;100.00
29815;BME280;16708;50.426;7.664;2023-04-15T19:31:20;987.23;;;7.83;100.00
29815;BME280;16708;50.426;7.664;2023-04-15T19:36:14;987.20;;;7.83;100.00
29815;BME280;16708;50.426;7.664;2023-04-15T19:41:08;987.19;;;7.81;100.00
29815;BME280;16708;50.426;7.664;2023-04-15T19:46:02;987.23;;;7.86;100.00
29815;BME280;16708;50.426;7.664;2023-04-15T19:50:56;987.32;;;7.84;100.00
29815;BME280;16708;50.426;7.664;2023-04-15T19:55:49;987.25;;;7.80;100.00
29815;BME280;16708;50.426;7.664;2023-04-15T20:00:43;987.42;;;7.78;100.00
29815;BME280;16708;50.426;7.664;2023-04-15T20:05:37;987.42;;;7.76;100.00
29815;BME280;16708;50.426;7.664;2023-04-15T20:10:32;987.44;;;7.72;100.00
29815;BME280;16708;50.426;7.664;2023-04-15T20:15:25;987.50;;;7.75;100.00
29815;BME280;16708;50.426;7.664;2023-04-15T20:20:19;987.42;;;7.75;100.00
29815;BME280;16708;50.426;7.664;2023-04-15T20:25:13;987.57;;;7.69;100.00
29815;BME280;16708;50.426;7.664;2023-04-15T20:30:07;987.59;;;7.67;100.00
29815;BME280;16708;50.426;7.664;2023-04-15T20:35:02;987.62;;;7.62;100.00
29815;BME280;16708;50.426;7.664;2023-04-15T20:39:56;987.73;;;7.63;100.00
29815;BME280;16708;50.426;7.664;2023-04-15T20:44:50;987.81;;;7.62;100.00
29815;BME280;16708;50.426;7.664;2023-04-15T20:49:44;987.78;;;7.62;100.00
29815;BME280;16708;50.426;7.664;2023-04-15T20:54:38;987.89;;;7.56;100.00
29815;BME280;16708;50.426;7.664;2023-04-15T20:59:33;987.96;;;7.55;100.00
29815;BME280;16708;50.426;7.664;2023-04-15T21:04:27;987.97;;;7.53;100.00
29815;BME280;16708;50.426;7.664;2023-04-15T21:09:21;988.05;;;7.54;100.00
29815;BME280;16708;50.426;7.664;2023-04-15T21:14:15;988.13;;;7.53;100.00
29815;BME280;16708;50.426;7.664;2023-04-15T21:19:07;988.13;;;7.51;100.00
29815;BME280;16708;50.426;7.664;2023-04-15T21:24:01;988.15;;;7.46;100.00
29815;BME280;16708;50.426;7.664;2023-04-15T21:28:55;988.30;;;7.48;100.00
29815;BME280;16708;50.426;7.664;2023-04-15T21:33:50;988.28;;;7.51;100.00
29815;BME280;16708;50.426;7.664;2023-04-15T21:38:44;988.30;;;7.51;100.00
29815;BME280;16708;50.426;7.664;2023-04-15T21:43:36;988.42;;;7.49;100.00
29815;BME280;16708;50.426;7.664;2023-04-15T21:48:31;988.45;;;7.43;100.00
29815;BME280;16708;50.426;7.664;2023-04-15T21:53:25;988.48;;;7.33;100.00
29815;BME280;16708;50.426;7.664;2023-04-15T21:58:19;988.60;;;7.39;100.00
29815;BME280;16708;50.426;7.664;2023-04-15T22:03:12;988.64;;;7.33;100.00
29815;BME280;16708;50.426;7.664;2023-04-15T22:08:07;988.76;;;7.33;100.00
29815;BME280;16708;50.426;7.664;2023-04-15T22:13:02;988.77;;;7.34;100.00
29815;BME280;16708;50.426;7.664;2023-04-15T22:17:56;988.78;;;7.33;100.00
29815;BME280;16708;50.426;7.664;2023-04-15T22:22:50;988.87;;;7.27;100.00
29815;BME280;16708;50.426;7.664;2023-04-15T22:27:45;988.85;;;7.23;100.00
29815;BME280;16708;50.426;7.664;2023-04-15T22:32:39;988.87;;;7.16;100.00
29815;BME280;16708;50.426;7.664;2023-04-15T22:37:33;988.97;;;7.19;100.00
29815;BME280;16708;50.426;7.664;2023-04-15T22:42:27;988.95;;;7.15;100.00
29815;BME280;16708;50.426;7.664;2023-04-15T22:47:21;989.14;;;7.17;100.00
29815;BME280;16708;50.426;7.664;2023-04-15T22:52:15;989.13;;;7.16;100.00
29815;BME280;16708;50.426;7.664;2023-04-15T22:57:09;989.25;;;7.14;100.00
29815;BME280;16708;50.426;7.664;2023-04-15T23:02:04;989.22;;;7.11;100.00
29815;BME280;16708;50.426;7.664;2023-04-15T23:06:58;989.26;;;7.08;100.00
29815;BME280;16708;50.426;7.664;2023-04-15T23:11:49;989.27;;;7.08;100.00
29815;BME280;16708;50.426;7.664;2023-04-15T23:16:43;989.33;;;7.03;100.00
29815;BME280;16708;50.426;7.664;2023-04-15T23:21:37;989.28;;;7.00;100.00
29815;BME280;16708;50.426;7.664;2023-04-15T23:26:31;989.42;;;6.94;100.00
29815;BME280;16708;50.426;7.664;2023-04-15T23:31:24;989.40;;;6.96;100.00
29815;BME280;16708;50.426;7.664;2023-04-15T23:36:18;989.43;;;6.97;100.00
29815;BME280;16708;50.426;7.664;2023-04-15T23:41:13;989.55;;;6.98;100.00
29815;BME280;16708;50.426;7.664;2023-04-15T23:46:09;989.44;;;6.94;100.00
29815;BME280;16708;50.426;7.664;2023-04-15T23:51:00;989.54;;;6.92;100.00
29815;BME280;16708;50.426;7.664;2023-04-15T23:55:54;989.55;;;6.90;100.00
